sensor_id;sensor_type;location;lat;lon;timestamp;temperature;humidity
72814;DHT22;60945;48.516;-2.768;2023-07-31T00:00:47;17.80;77.20
72814;DHT22;60945;48.516;-2.768;2023-07-31T00:03:13;17.80;77.30
72814;DHT22;60945;48.516;-2.768;2023-07-31T00:05:39;17.80;77.30
72814;DHT22;60945;48.516;-2.768;2023-07-31T00:08:04;17.60;77.80
72814;DHT22;60945;48.516;-2.768;2023-07-31T00:10:30;17.60;77.80
72814;DHT22;60945;48.516;-2.768;2023-07-31T00:12:56;17.70;77.60
72814;DHT22;60945;48.516;-2.768;2023-07-31T00:15:21;17.70;77.50
72814;DHT22;60945;48.516;-2.768;2023-07-31T00:17:47;17.80;77.30
72814;DHT22;60945;48.516;-2.768;2023-07-31T00:20:13;17.80;77.30
72814;DHT22;60945;48.516;-2.768;2023-07-31T00:22:38;17.80;77.50
72814;DHT22;60945;48.516;-2.768;2023-07-31T00:25:04;17.80;77.40
72814;DHT22;60945;48.516;-2.768;2023-07-31T00:27:32;17.80;77.60
72814;DHT22;60945;48.516;-2.768;2023-07-31T00:29:57;17.70;78.00
72814;DHT22;60945;48.516;-2.768;2023-07-31T00:32:23;17.60;78.20
72814;DHT22;60945;48.516;-2.768;2023-07-31T00:34:48;17.70;77.90
72814;DHT22;60945;48.516;-2.768;2023-07-31T00:37:14;17.70;77.90
72814;DHT22;60945;48.516;-2.768;2023-07-31T00:39:41;17.70;78.10
72814;DHT22;60945;48.516;-2.768;2023-07-31T00:42:06;17.60;78.60
72814;DHT22;60945;48.516;-2.768;2023-07-31T00:44:32;17.50;78.90
72814;DHT22;60945;48.516;-2.768;2023-07-31T00:46:58;17.60;78.70
72814;DHT22;60945;48.516;-2.768;2023-07-31T00:49:25;17.70;78.30
72814;DHT22;60945;48.516;-2.768;2023-07-31T00:51:51;17.70;78.40
72814;DHT22;60945;48.516;-2.768;2023-07-31T00:54:17;17.80;77.80
72814;DHT22;60945;48.516;-2.768;2023-07-31T00:56:45;17.80;77.60
72814;DHT22;60945;48.516;-2.768;2023-07-31T00:59:11;17.90;77.40
72814;DHT22;60945;48.516;-2.768;2023-07-31T01:01:37;17.90;77.30
72814;DHT22;60945;48.516;-2.768;2023-07-31T01:04:03;17.90;77.10
72814;DHT22;60945;48.516;-2.768;2023-07-31T01:09:11;17.80;78.10
72814;DHT22;60945;48.516;-2.768;2023-07-31T01:11:44;17.80;77.90
72814;DHT22;60945;48.516;-2.768;2023-07-31T01:14:12;17.80;78.10
72814;DHT22;60945;48.516;-2.768;2023-07-31T01:16:37;17.80;77.90
72814;DHT22;60945;48.516;-2.768;2023-07-31T01:19:03;17.90;77.50
72814;DHT22;60945;48.516;-2.768;2023-07-31T01:27:12;18.00;77.30
72814;DHT22;60945;48.516;-2.768;2023-07-31T01:32:09;18.00;77.20
72814;DHT22;60945;48.516;-2.768;2023-07-31T01:34:36;18.00;77.50
72814;DHT22;60945;48.516;-2.768;2023-07-31T01:37:03;18.00;77.60
72814;DHT22;60945;48.516;-2.768;2023-07-31T01:39:28;18.00;77.70
72814;DHT22;60945;48.516;-2.768;2023-07-31T01:41:54;18.00;77.90
72814;DHT22;60945;48.516;-2.768;2023-07-31T01:44:20;18.00;78.00
72814;DHT22;60945;48.516;-2.768;2023-07-31T01:46:45;18.00;78.10
72814;DHT22;60945;48.516;-2.768;2023-07-31T01:49:11;17.90;78.30
72814;DHT22;60945;48.516;-2.768;2023-07-31T01:51:37;17.90;78.50
72814;DHT22;60945;48.516;-2.768;2023-07-31T01:54:02;18.00;78.30
72814;DHT22;60945;48.516;-2.768;2023-07-31T01:56:28;18.00;78.50
72814;DHT22;60945;48.516;-2.768;2023-07-31T01:58:54;18.00;78.50
72814;DHT22;60945;48.516;-2.768;2023-07-31T02:01:20;17.90;78.70
72814;DHT22;60945;48.516;-2.768;2023-07-31T02:03:45;18.00;78.90
72814;DHT22;60945;48.516;-2.768;2023-07-31T02:06:11;17.90;79.10
72814;DHT22;60945;48.516;-2.768;2023-07-31T02:08:37;18.00;78.90
72814;DHT22;60945;48.516;-2.768;2023-07-31T02:11:03;18.00;78.90
72814;DHT22;60945;48.516;-2.768;2023-07-31T02:13:28;17.90;79.20
72814;DHT22;60945;48.516;-2.768;2023-07-31T02:15:54;17.90;79.60
72814;DHT22;60945;48.516;-2.768;2023-07-31T02:18:20;17.80;79.70
72814;DHT22;60945;48.516;-2.768;2023-07-31T02:20:52;17.60;80.50
72814;DHT22;60945;48.516;-2.768;2023-07-31T02:23:20;17.60;80.80
72814;DHT22;60945;48.516;-2.768;2023-07-31T02:25:46;17.60;81.20
72814;DHT22;60945;48.516;-2.768;2023-07-31T02:28:12;17.70;80.80
72814;DHT22;60945;48.516;-2.768;2023-07-31T02:30:38;17.80;80.30
72814;DHT22;60945;48.516;-2.768;2023-07-31T02:33:04;17.80;80.50
72814;DHT22;60945;48.516;-2.768;2023-07-31T02:35:30;17.80;80.40
72814;DHT22;60945;48.516;-2.768;2023-07-31T02:37:56;17.80;80.60
72814;DHT22;60945;48.516;-2.768;2023-07-31T02:40:21;17.90;80.30
72814;DHT22;60945;48.516;-2.768;2023-07-31T02:42:47;18.00;79.90
72814;DHT22;60945;48.516;-2.768;2023-07-31T02:45:13;18.10;79.80
72814;DHT22;60945;48.516;-2.768;2023-07-31T02:47:38;18.10;79.80
72814;DHT22;60945;48.516;-2.768;2023-07-31T02:50:04;18.10;80.20
72814;DHT22;60945;48.516;-2.768;2023-07-31T02:52:30;18.10;80.30
72814;DHT22;60945;48.516;-2.768;2023-07-31T02:54:56;18.20;79.90
72814;DHT22;60945;48.516;-2.768;2023-07-31T02:57:22;18.20;80.00
72814;DHT22;60945;48.516;-2.768;2023-07-31T02:59:48;18.20;79.80
72814;DHT22;60945;48.516;-2.768;2023-07-31T03:02:13;18.20;79.70
72814;DHT22;60945;48.516;-2.768;2023-07-31T03:04:39;18.10;80.30
72814;DHT22;60945;48.516;-2.768;2023-07-31T03:07:05;18.10;80.60
72814;DHT22;60945;48.516;-2.768;2023-07-31T03:09:31;18.20;80.60
72814;DHT22;60945;48.516;-2.768;2023-07-31T03:11:57;18.20;80.20
72814;DHT22;60945;48.516;-2.768;2023-07-31T03:14:22;18.30;80.20
72814;DHT22;60945;48.516;-2.768;2023-07-31T03:16:48;18.30;80.10
72814;DHT22;60945;48.516;-2.768;2023-07-31T03:19:14;18.10;81.20
72814;DHT22;60945;48.516;-2.768;2023-07-31T03:21:40;18.10;81.60
72814;DHT22;60945;48.516;-2.768;2023-07-31T03:24:06;18.20;81.40
72814;DHT22;60945;48.516;-2.768;2023-07-31T03:26:32;18.20;81.40
72814;DHT22;60945;48.516;-2.768;2023-07-31T03:28:58;18.00;82.20
72814;DHT22;60945;48.516;-2.768;2023-07-31T03:31:24;18.10;81.80
72814;DHT22;60945;48.516;-2.768;2023-07-31T03:33:49;18.20;81.90
72814;DHT22;60945;48.516;-2.768;2023-07-31T03:36:15;18.10;82.10
72814;DHT22;60945;48.516;-2.768;2023-07-31T03:38:40;18.10;82.50
72814;DHT22;60945;48.516;-2.768;2023-07-31T03:41:06;18.20;82.00
72814;DHT22;60945;48.516;-2.768;2023-07-31T03:43:32;18.10;82.60
72814;DHT22;60945;48.516;-2.768;2023-07-31T03:46:00;18.00;82.90
72814;DHT22;60945;48.516;-2.768;2023-07-31T03:48:25;18.10;82.80
72814;DHT22;60945;48.516;-2.768;2023-07-31T03:50:51;18.20;82.30
72814;DHT22;60945;48.516;-2.768;2023-07-31T03:53:17;18.10;82.90
72814;DHT22;60945;48.516;-2.768;2023-07-31T03:55:42;18.10;83.10
72814;DHT22;60945;48.516;-2.768;2023-07-31T03:58:08;18.10;83.10
72814;DHT22;60945;48.516;-2.768;2023-07-31T04:00:34;18.10;83.20
72814;DHT22;60945;48.516;-2.768;2023-07-31T04:02:59;18.10;83.60
72814;DHT22;60945;48.516;-2.768;2023-07-31T04:05:25;18.00;83.90
72814;DHT22;60945;48.516;-2.768;2023-07-31T04:07:51;18.00;84.30
72814;DHT22;60945;48.516;-2.768;2023-07-31T04:10:16;18.00;84.10
72814;DHT22;60945;48.516;-2.768;2023-07-31T04:12:42;18.10;83.80
72814;DHT22;60945;48.516;-2.768;2023-07-31T04:15:08;18.00;84.70
72814;DHT22;60945;48.516;-2.768;2023-07-31T04:17:36;17.90;85.30
72814;DHT22;60945;48.516;-2.768;2023-07-31T04:20:02;18.00;85.10
72814;DHT22;60945;48.516;-2.768;2023-07-31T04:22:28;18.00;84.70
72814;DHT22;60945;48.516;-2.768;2023-07-31T04:24:54;17.90;85.40
72814;DHT22;60945;48.516;-2.768;2023-07-31T04:27:19;18.00;85.20
72814;DHT22;60945;48.516;-2.768;2023-07-31T04:29:45;18.10;84.90
72814;DHT22;60945;48.516;-2.768;2023-07-31T04:32:12;18.00;85.00
72814;DHT22;60945;48.516;-2.768;2023-07-31T04:34:38;18.00;85.40
72814;DHT22;60945;48.516;-2.768;2023-07-31T04:37:04;17.90;85.70
72814;DHT22;60945;48.516;-2.768;2023-07-31T04:39:29;17.80;86.20
72814;DHT22;60945;48.516;-2.768;2023-07-31T04:41:55;17.90;86.10
72814;DHT22;60945;48.516;-2.768;2023-07-31T04:44:21;17.90;85.90
72814;DHT22;60945;48.516;-2.768;2023-07-31T04:46:46;17.90;85.80
72814;DHT22;60945;48.516;-2.768;2023-07-31T04:49:12;17.90;85.90
72814;DHT22;60945;48.516;-2.768;2023-07-31T04:51:38;18.00;85.50
72814;DHT22;60945;48.516;-2.768;2023-07-31T04:54:03;18.00;85.40
72814;DHT22;60945;48.516;-2.768;2023-07-31T04:56:29;18.00;85.60
72814;DHT22;60945;48.516;-2.768;2023-07-31T04:58:54;18.10;85.30
72814;DHT22;60945;48.516;-2.768;2023-07-31T05:01:20;18.10;85.20
72814;DHT22;60945;48.516;-2.768;2023-07-31T05:03:46;18.20;85.10
72814;DHT22;60945;48.516;-2.768;2023-07-31T05:06:11;18.10;85.40
72814;DHT22;60945;48.516;-2.768;2023-07-31T05:08:38;18.20;85.30
72814;DHT22;60945;48.516;-2.768;2023-07-31T05:11:04;18.20;85.10
72814;DHT22;60945;48.516;-2.768;2023-07-31T05:13:30;18.30;84.80
72814;DHT22;60945;48.516;-2.768;2023-07-31T05:15:56;18.30;85.30
72814;DHT22;60945;48.516;-2.768;2023-07-31T05:18:21;18.20;85.30
72814;DHT22;60945;48.516;-2.768;2023-07-31T05:20:47;18.30;85.30
72814;DHT22;60945;48.516;-2.768;2023-07-31T05:23:12;18.40;85.20
72814;DHT22;60945;48.516;-2.768;2023-07-31T05:25:38;18.40;84.90
72814;DHT22;60945;48.516;-2.768;2023-07-31T05:28:04;18.30;85.60
72814;DHT22;60945;48.516;-2.768;2023-07-31T05:30:30;18.30;85.70
72814;DHT22;60945;48.516;-2.768;2023-07-31T05:32:56;18.40;85.60
72814;DHT22;60945;48.516;-2.768;2023-07-31T05:35:22;18.50;84.80
72814;DHT22;60945;48.516;-2.768;2023-07-31T05:37:47;18.40;85.50
72814;DHT22;60945;48.516;-2.768;2023-07-31T05:40:14;18.50;84.90
72814;DHT22;60945;48.516;-2.768;2023-07-31T05:42:39;18.60;84.40
72814;DHT22;60945;48.516;-2.768;2023-07-31T05:45:06;18.40;85.20
72814;DHT22;60945;48.516;-2.768;2023-07-31T05:47:32;18.50;85.20
72814;DHT22;60945;48.516;-2.768;2023-07-31T05:49:58;18.50;84.60
72814;DHT22;60945;48.516;-2.768;2023-07-31T05:52:23;18.40;85.40
72814;DHT22;60945;48.516;-2.768;2023-07-31T05:54:49;18.50;84.70
72814;DHT22;60945;48.516;-2.768;2023-07-31T05:57:15;18.70;84.10
72814;DHT22;60945;48.516;-2.768;2023-07-31T05:59:41;18.80;83.50
72814;DHT22;60945;48.516;-2.768;2023-07-31T06:02:09;18.60;84.10
72814;DHT22;60945;48.516;-2.768;2023-07-31T06:04:35;18.60;84.40
72814;DHT22;60945;48.516;-2.768;2023-07-31T06:07:00;18.50;84.50
72814;DHT22;60945;48.516;-2.768;2023-07-31T06:09:27;18.50;84.80
72814;DHT22;60945;48.516;-2.768;2023-07-31T06:11:52;18.70;84.40
72814;DHT22;60945;48.516;-2.768;2023-07-31T06:14:18;18.70;83.60
72814;DHT22;60945;48.516;-2.768;2023-07-31T06:16:44;18.70;84.00
72814;DHT22;60945;48.516;-2.768;2023-07-31T06:19:10;18.80;83.70
72814;DHT22;60945;48.516;-2.768;2023-07-31T06:21:36;18.80;83.30
72814;DHT22;60945;48.516;-2.768;2023-07-31T06:24:07;18.80;83.90
72814;DHT22;60945;48.516;-2.768;2023-07-31T06:26:33;18.90;83.30
72814;DHT22;60945;48.516;-2.768;2023-07-31T06:28:58;18.80;83.40
72814;DHT22;60945;48.516;-2.768;2023-07-31T06:31:24;18.80;83.60
72814;DHT22;60945;48.516;-2.768;2023-07-31T06:33:51;18.90;83.20
72814;DHT22;60945;48.516;-2.768;2023-07-31T06:36:16;18.90;83.10
72814;DHT22;60945;48.516;-2.768;2023-07-31T06:38:45;19.00;82.90
72814;DHT22;60945;48.516;-2.768;2023-07-31T06:41:11;19.10;82.30
72814;DHT22;60945;48.516;-2.768;2023-07-31T06:43:37;19.10;82.20
72814;DHT22;60945;48.516;-2.768;2023-07-31T06:46:06;19.20;81.60
72814;DHT22;60945;48.516;-2.768;2023-07-31T06:48:33;19.20;81.30
72814;DHT22;60945;48.516;-2.768;2023-07-31T06:50:59;19.30;81.10
72814;DHT22;60945;48.516;-2.768;2023-07-31T06:53:24;19.40;80.70
72814;DHT22;60945;48.516;-2.768;2023-07-31T06:55:50;19.40;80.50
72814;DHT22;60945;48.516;-2.768;2023-07-31T06:58:17;19.40;80.70
72814;DHT22;60945;48.516;-2.768;2023-07-31T07:00:43;19.70;79.80
72814;DHT22;60945;48.516;-2.768;2023-07-31T07:03:09;19.80;79.50
72814;DHT22;60945;48.516;-2.768;2023-07-31T07:05:34;19.80;78.70
72814;DHT22;60945;48.516;-2.768;2023-07-31T07:08:00;19.70;79.50
72814;DHT22;60945;48.516;-2.768;2023-07-31T07:10:26;19.70;78.90
72814;DHT22;60945;48.516;-2.768;2023-07-31T07:12:54;19.80;78.80
72814;DHT22;60945;48.516;-2.768;2023-07-31T07:15:20;19.90;78.20
72814;DHT22;60945;48.516;-2.768;2023-07-31T07:17:46;20.20;77.50
72814;DHT22;60945;48.516;-2.768;2023-07-31T07:20:12;20.30;77.30
72814;DHT22;60945;48.516;-2.768;2023-07-31T07:22:38;20.40;76.80
72814;DHT22;60945;48.516;-2.768;2023-07-31T07:25:04;20.30;76.60
72814;DHT22;60945;48.516;-2.768;2023-07-31T07:27:30;20.10;77.20
72814;DHT22;60945;48.516;-2.768;2023-07-31T07:29:55;20.20;76.60
72814;DHT22;60945;48.516;-2.768;2023-07-31T07:32:21;20.40;76.10
72814;DHT22;60945;48.516;-2.768;2023-07-31T07:34:48;20.50;75.60
72814;DHT22;60945;48.516;-2.768;2023-07-31T07:37:14;20.80;74.50
72814;DHT22;60945;48.516;-2.768;2023-07-31T07:39:41;20.50;75.40
72814;DHT22;60945;48.516;-2.768;2023-07-31T07:42:07;20.70;74.40
72814;DHT22;60945;48.516;-2.768;2023-07-31T07:44:32;20.60;75.70
72814;DHT22;60945;48.516;-2.768;2023-07-31T07:46:58;20.80;74.40
72814;DHT22;60945;48.516;-2.768;2023-07-31T07:49:24;21.30;73.50
72814;DHT22;60945;48.516;-2.768;2023-07-31T07:51:49;21.10;73.70
72814;DHT22;60945;48.516;-2.768;2023-07-31T07:54:15;21.40;72.90
72814;DHT22;60945;48.516;-2.768;2023-07-31T07:56:42;21.30;72.90
72814;DHT22;60945;48.516;-2.768;2023-07-31T07:59:08;21.30;72.40
72814;DHT22;60945;48.516;-2.768;2023-07-31T08:01:34;21.20;72.70
72814;DHT22;60945;48.516;-2.768;2023-07-31T08:03:59;21.40;72.00
72814;DHT22;60945;48.516;-2.768;2023-07-31T08:06:25;21.40;72.60
72814;DHT22;60945;48.516;-2.768;2023-07-31T08:08:51;21.20;72.90
72814;DHT22;60945;48.516;-2.768;2023-07-31T08:11:16;21.20;73.70
72814;DHT22;60945;48.516;-2.768;2023-07-31T08:13:42;21.70;71.30
72814;DHT22;60945;48.516;-2.768;2023-07-31T08:16:07;22.10;69.80
72814;DHT22;60945;48.516;-2.768;2023-07-31T08:18:34;22.00;69.80
72814;DHT22;60945;48.516;-2.768;2023-07-31T08:21:01;22.10;69.20
72814;DHT22;60945;48.516;-2.768;2023-07-31T08:23:26;21.90;70.00
72814;DHT22;60945;48.516;-2.768;2023-07-31T08:25:52;22.00;69.60
72814;DHT22;60945;48.516;-2.768;2023-07-31T08:28:18;21.60;70.70
72814;DHT22;60945;48.516;-2.768;2023-07-31T08:30:43;21.80;70.40
72814;DHT22;60945;48.516;-2.768;2023-07-31T08:33:09;21.80;70.50
72814;DHT22;60945;48.516;-2.768;2023-07-31T08:35:36;22.10;70.00
72814;DHT22;60945;48.516;-2.768;2023-07-31T08:38:01;21.70;70.50
72814;DHT22;60945;48.516;-2.768;2023-07-31T08:40:29;22.10;69.10
72814;DHT22;60945;48.516;-2.768;2023-07-31T08:42:56;22.20;68.40
72814;DHT22;60945;48.516;-2.768;2023-07-31T08:45:28;22.40;68.20
72814;DHT22;60945;48.516;-2.768;2023-07-31T08:47:55;22.50;67.80
72814;DHT22;60945;48.516;-2.768;2023-07-31T08:50:22;23.20;65.50
72814;DHT22;60945;48.516;-2.768;2023-07-31T08:52:49;23.00;66.10
72814;DHT22;60945;48.516;-2.768;2023-07-31T08:55:15;23.10;65.70
72814;DHT22;60945;48.516;-2.768;2023-07-31T08:57:42;22.60;67.60
72814;DHT22;60945;48.516;-2.768;2023-07-31T09:00:09;22.40;68.00
72814;DHT22;60945;48.516;-2.768;2023-07-31T09:02:45;22.90;66.50
72814;DHT22;60945;48.516;-2.768;2023-07-31T09:05:11;23.00;65.80
72814;DHT22;60945;48.516;-2.768;2023-07-31T09:07:37;23.00;66.00
72814;DHT22;60945;48.516;-2.768;2023-07-31T09:10:04;23.00;66.00
72814;DHT22;60945;48.516;-2.768;2023-07-31T09:12:30;23.20;65.90
72814;DHT22;60945;48.516;-2.768;2023-07-31T09:14:59;23.40;64.70
72814;DHT22;60945;48.516;-2.768;2023-07-31T09:17:32;23.30;65.30
72814;DHT22;60945;48.516;-2.768;2023-07-31T09:22:42;23.30;65.70
72814;DHT22;60945;48.516;-2.768;2023-07-31T09:25:25;23.50;65.70
72814;DHT22;60945;48.516;-2.768;2023-07-31T09:27:55;24.20;63.40
72814;DHT22;60945;48.516;-2.768;2023-07-31T09:30:21;24.70;61.40
72814;DHT22;60945;48.516;-2.768;2023-07-31T09:32:48;24.10;63.30
72814;DHT22;60945;48.516;-2.768;2023-07-31T09:35:27;23.90;63.60
72814;DHT22;60945;48.516;-2.768;2023-07-31T09:37:55;23.30;65.10
72814;DHT22;60945;48.516;-2.768;2023-07-31T09:40:35;23.50;65.70
72814;DHT22;60945;48.516;-2.768;2023-07-31T09:43:03;22.80;68.10
72814;DHT22;60945;48.516;-2.768;2023-07-31T09:45:30;23.30;65.60
72814;DHT22;60945;48.516;-2.768;2023-07-31T09:47:56;22.80;68.00
72814;DHT22;60945;48.516;-2.768;2023-07-31T09:50:24;22.70;68.30
72814;DHT22;60945;48.516;-2.768;2023-07-31T09:52:53;22.70;69.20
72814;DHT22;60945;48.516;-2.768;2023-07-31T09:55:19;22.50;69.00
72814;DHT22;60945;48.516;-2.768;2023-07-31T09:57:47;22.50;69.50
72814;DHT22;60945;48.516;-2.768;2023-07-31T10:00:15;22.70;69.20
72814;DHT22;60945;48.516;-2.768;2023-07-31T10:02:41;22.60;69.00
72814;DHT22;60945;48.516;-2.768;2023-07-31T10:05:08;22.40;70.10
72814;DHT22;60945;48.516;-2.768;2023-07-31T10:07:37;22.40;69.80
72814;DHT22;60945;48.516;-2.768;2023-07-31T10:10:04;23.20;68.40
72814;DHT22;60945;48.516;-2.768;2023-07-31T10:12:32;24.40;63.30
72814;DHT22;60945;48.516;-2.768;2023-07-31T10:14:59;24.00;65.50
72814;DHT22;60945;48.516;-2.768;2023-07-31T10:17:26;25.40;61.30
72814;DHT22;60945;48.516;-2.768;2023-07-31T10:19:53;25.20;60.80
72814;DHT22;60945;48.516;-2.768;2023-07-31T10:22:19;26.60;57.70
72814;DHT22;60945;48.516;-2.768;2023-07-31T10:24:46;26.20;57.90
72814;DHT22;60945;48.516;-2.768;2023-07-31T10:27:12;27.00;56.20
72814;DHT22;60945;48.516;-2.768;2023-07-31T10:29:39;26.00;58.20
72814;DHT22;60945;48.516;-2.768;2023-07-31T10:32:06;27.70;54.10
72814;DHT22;60945;48.516;-2.768;2023-07-31T10:34:36;28.00;53.50
72814;DHT22;60945;48.516;-2.768;2023-07-31T10:37:36;27.90;53.90
72814;DHT22;60945;48.516;-2.768;2023-07-31T10:42:33;27.80;54.80
72814;DHT22;60945;48.516;-2.768;2023-07-31T10:45:09;27.50;54.60
72814;DHT22;60945;48.516;-2.768;2023-07-31T10:47:42;24.80;61.50
72814;DHT22;60945;48.516;-2.768;2023-07-31T10:50:22;26.40;58.30
72814;DHT22;60945;48.516;-2.768;2023-07-31T10:52:53;28.20;54.20
72814;DHT22;60945;48.516;-2.768;2023-07-31T10:55:26;28.50;52.70
72814;DHT22;60945;48.516;-2.768;2023-07-31T10:57:53;29.00;51.90
72814;DHT22;60945;48.516;-2.768;2023-07-31T11:00:28;29.30;52.60
72814;DHT22;60945;48.516;-2.768;2023-07-31T11:03:12;32.10;44.50
72814;DHT22;60945;48.516;-2.768;2023-07-31T11:08:24;34.10;40.90
72814;DHT22;60945;48.516;-2.768;2023-07-31T11:11:11;31.00;47.10
72814;DHT22;60945;48.516;-2.768;2023-07-31T11:13:44;30.50;47.90
72814;DHT22;60945;48.516;-2.768;2023-07-31T11:16:11;31.60;45.70
72814;DHT22;60945;48.516;-2.768;2023-07-31T11:18:39;32.70;43.90
72814;DHT22;60945;48.516;-2.768;2023-07-31T11:21:06;33.10;43.60
72814;DHT22;60945;48.516;-2.768;2023-07-31T11:23:32;34.00;41.10
72814;DHT22;60945;48.516;-2.768;2023-07-31T11:26:01;31.60;45.40
72814;DHT22;60945;48.516;-2.768;2023-07-31T11:28:32;31.30;46.90
72814;DHT22;60945;48.516;-2.768;2023-07-31T11:30:58;30.20;48.70
72814;DHT22;60945;48.516;-2.768;2023-07-31T11:33:24;29.60;49.70
72814;DHT22;60945;48.516;-2.768;2023-07-31T11:35:49;30.30;48.80
72814;DHT22;60945;48.516;-2.768;2023-07-31T11:40:54;33.00;43.60
72814;DHT22;60945;48.516;-2.768;2023-07-31T11:43:21;34.10;41.40
72814;DHT22;60945;48.516;-2.768;2023-07-31T11:45:52;34.50;40.80
72814;DHT22;60945;48.516;-2.768;2023-07-31T11:48:22;33.60;42.30
72814;DHT22;60945;48.516;-2.768;2023-07-31T11:50:50;34.00;41.60
72814;DHT22;60945;48.516;-2.768;2023-07-31T11:53:18;34.80;39.80
72814;DHT22;60945;48.516;-2.768;2023-07-31T11:55:45;34.20;41.20
72814;DHT22;60945;48.516;-2.768;2023-07-31T11:58:12;32.70;43.80
72814;DHT22;60945;48.516;-2.768;2023-07-31T12:00:38;28.90;51.30
72814;DHT22;60945;48.516;-2.768;2023-07-31T12:03:04;29.20;51.70
72814;DHT22;60945;48.516;-2.768;2023-07-31T12:05:30;29.00;52.20
72814;DHT22;60945;48.516;-2.768;2023-07-31T12:07:55;28.40;54.20
72814;DHT22;60945;48.516;-2.768;2023-07-31T12:10:29;28.50;53.80
72814;DHT22;60945;48.516;-2.768;2023-07-31T12:12:57;27.70;55.30
72814;DHT22;60945;48.516;-2.768;2023-07-31T12:15:32;29.90;50.10
72814;DHT22;60945;48.516;-2.768;2023-07-31T12:17:58;30.40;50.80
72814;DHT22;60945;48.516;-2.768;2023-07-31T12:20:24;30.50;48.50
72814;DHT22;60945;48.516;-2.768;2023-07-31T12:22:49;29.40;51.60
72814;DHT22;60945;48.516;-2.768;2023-07-31T12:25:15;30.60;49.00
72814;DHT22;60945;48.516;-2.768;2023-07-31T12:27:44;28.40;52.80
72814;DHT22;60945;48.516;-2.768;2023-07-31T12:30:32;27.20;56.60
72814;DHT22;60945;48.516;-2.768;2023-07-31T12:33:02;27.10;57.10
72814;DHT22;60945;48.516;-2.768;2023-07-31T12:35:35;26.80;57.60
72814;DHT22;60945;48.516;-2.768;2023-07-31T12:38:04;25.80;60.70
72814;DHT22;60945;48.516;-2.768;2023-07-31T12:40:30;25.30;63.30
72814;DHT22;60945;48.516;-2.768;2023-07-31T12:42:55;24.50;67.00
72814;DHT22;60945;48.516;-2.768;2023-07-31T12:45:21;24.30;69.70
72814;DHT22;60945;48.516;-2.768;2023-07-31T12:47:48;24.10;71.50
72814;DHT22;60945;48.516;-2.768;2023-07-31T12:50:14;23.20;75.10
72814;DHT22;60945;48.516;-2.768;2023-07-31T12:52:39;22.70;77.40
72814;DHT22;60945;48.516;-2.768;2023-07-31T12:55:05;22.70;79.50
72814;DHT22;60945;48.516;-2.768;2023-07-31T12:57:33;23.10;78.00
72814;DHT22;60945;48.516;-2.768;2023-07-31T12:59:59;22.70;79.20
72814;DHT22;60945;48.516;-2.768;2023-07-31T13:02:24;23.00;78.10
72814;DHT22;60945;48.516;-2.768;2023-07-31T13:04:50;22.60;80.00
72814;DHT22;60945;48.516;-2.768;2023-07-31T13:07:16;22.40;83.80
72814;DHT22;60945;48.516;-2.768;2023-07-31T13:09:42;22.00;83.80
72814;DHT22;60945;48.516;-2.768;2023-07-31T13:12:08;21.50;83.40
72814;DHT22;60945;48.516;-2.768;2023-07-31T13:14:33;21.60;85.60
72814;DHT22;60945;48.516;-2.768;2023-07-31T13:16:59;21.70;83.70
72814;DHT22;60945;48.516;-2.768;2023-07-31T13:19:25;23.90;77.10
72814;DHT22;60945;48.516;-2.768;2023-07-31T13:21:50;24.70;71.40
72814;DHT22;60945;48.516;-2.768;2023-07-31T13:24:16;24.50;73.70
72814;DHT22;60945;48.516;-2.768;2023-07-31T13:26:41;24.50;70.20
72814;DHT22;60945;48.516;-2.768;2023-07-31T13:29:07;24.90;70.60
72814;DHT22;60945;48.516;-2.768;2023-07-31T13:31:33;24.40;71.10
72814;DHT22;60945;48.516;-2.768;2023-07-31T13:33:58;23.50;74.10
72814;DHT22;60945;48.516;-2.768;2023-07-31T13:36:24;23.30;73.70
72814;DHT22;60945;48.516;-2.768;2023-07-31T13:38:49;23.50;74.40
72814;DHT22;60945;48.516;-2.768;2023-07-31T13:41:15;23.70;73.80
72814;DHT22;60945;48.516;-2.768;2023-07-31T13:43:41;24.00;74.00
72814;DHT22;60945;48.516;-2.768;2023-07-31T13:46:07;24.40;72.40
72814;DHT22;60945;48.516;-2.768;2023-07-31T13:48:36;24.30;70.70
72814;DHT22;60945;48.516;-2.768;2023-07-31T13:51:01;24.50;70.60
72814;DHT22;60945;48.516;-2.768;2023-07-31T13:53:27;23.60;73.40
72814;DHT22;60945;48.516;-2.768;2023-07-31T13:55:53;23.00;76.50
72814;DHT22;60945;48.516;-2.768;2023-07-31T13:58:18;23.50;74.30
72814;DHT22;60945;48.516;-2.768;2023-07-31T14:00:44;23.50;74.00
72814;DHT22;60945;48.516;-2.768;2023-07-31T14:03:10;24.00;72.40
72814;DHT22;60945;48.516;-2.768;2023-07-31T14:05:35;23.80;72.90
72814;DHT22;60945;48.516;-2.768;2023-07-31T14:08:01;23.80;72.80
72814;DHT22;60945;48.516;-2.768;2023-07-31T14:10:27;23.90;71.70
72814;DHT22;60945;48.516;-2.768;2023-07-31T14:12:52;23.50;73.60
72814;DHT22;60945;48.516;-2.768;2023-07-31T14:15:18;23.30;74.60
72814;DHT22;60945;48.516;-2.768;2023-07-31T14:17:43;22.70;76.90
72814;DHT22;60945;48.516;-2.768;2023-07-31T14:20:10;23.10;76.20
72814;DHT22;60945;48.516;-2.768;2023-07-31T14:22:35;23.30;75.70
72814;DHT22;60945;48.516;-2.768;2023-07-31T14:25:03;22.50;77.70
72814;DHT22;60945;48.516;-2.768;2023-07-31T14:27:29;22.70;79.00
72814;DHT22;60945;48.516;-2.768;2023-07-31T14:29:54;22.70;78.40
72814;DHT22;60945;48.516;-2.768;2023-07-31T14:32:21;22.80;77.40
72814;DHT22;60945;48.516;-2.768;2023-07-31T14:34:48;22.50;78.50
72814;DHT22;60945;48.516;-2.768;2023-07-31T14:37:14;22.30;77.70
72814;DHT22;60945;48.516;-2.768;2023-07-31T14:39:40;22.10;80.40
72814;DHT22;60945;48.516;-2.768;2023-07-31T14:42:06;22.50;78.40
72814;DHT22;60945;48.516;-2.768;2023-07-31T14:44:31;22.60;77.40
72814;DHT22;60945;48.516;-2.768;2023-07-31T14:46:57;22.20;80.10
72814;DHT22;60945;48.516;-2.768;2023-07-31T14:49:23;21.90;81.20
72814;DHT22;60945;48.516;-2.768;2023-07-31T14:51:49;22.30;80.10
72814;DHT22;60945;48.516;-2.768;2023-07-31T14:54:14;22.60;80.00
72814;DHT22;60945;48.516;-2.768;2023-07-31T14:56:40;23.40;77.00
72814;DHT22;60945;48.516;-2.768;2023-07-31T14:59:05;23.60;75.90
72814;DHT22;60945;48.516;-2.768;2023-07-31T15:01:33;23.60;75.60
72814;DHT22;60945;48.516;-2.768;2023-07-31T15:03:59;23.90;73.50
72814;DHT22;60945;48.516;-2.768;2023-07-31T15:06:24;23.50;75.40
72814;DHT22;60945;48.516;-2.768;2023-07-31T15:08:50;23.60;75.10
72814;DHT22;60945;48.516;-2.768;2023-07-31T15:11:15;23.50;75.50
72814;DHT22;60945;48.516;-2.768;2023-07-31T15:13:41;23.40;77.20
72814;DHT22;60945;48.516;-2.768;2023-07-31T15:16:09;23.40;77.00
72814;DHT22;60945;48.516;-2.768;2023-07-31T15:18:35;23.30;75.80
72814;DHT22;60945;48.516;-2.768;2023-07-31T15:21:00;23.20;76.70
72814;DHT22;60945;48.516;-2.768;2023-07-31T15:23:26;23.10;76.80
72814;DHT22;60945;48.516;-2.768;2023-07-31T15:25:52;22.70;79.30
72814;DHT22;60945;48.516;-2.768;2023-07-31T15:28:18;22.40;79.90
72814;DHT22;60945;48.516;-2.768;2023-07-31T15:30:44;22.50;80.20
72814;DHT22;60945;48.516;-2.768;2023-07-31T15:33:10;22.70;79.40